createdAt,value
2023-05-21T00:00:23.714Z,22.19
2023-05-21T00:01:23.724Z,22.19
2023-05-21T00:02:23.799Z,22.19
2023-05-21T00:03:23.839Z,22.19
2023-05-21T00:04:23.837Z,22.19
2023-05-21T00:05:24.177Z,22.20
2023-05-21T00:06:23.920Z,22.19
2023-05-21T00:07:23.940Z,22.20
2023-05-21T00:08:23.999Z,22.19
2023-05-21T00:09:23.941Z,22.18
2023-05-21T00:10:24.167Z,22.18
2023-05-21T00:11:23.896Z,22.18
2023-05-21T00:12:23.898Z,22.18
2023-05-21T00:13:23.883Z,22.18
2023-05-21T00:14:23.881Z,22.18
2023-05-21T00:15:23.844Z,22.18
2023-05-21T00:16:23.880Z,22.17
2023-05-21T00:17:23.851Z,22.17
2023-05-21T00:18:23.852Z,22.17
2023-05-21T00:19:23.930Z,22.17
2023-05-21T00:20:23.822Z,22.16
2023-05-21T00:21:23.831Z,22.16
2023-05-21T00:22:23.800Z,22.17
2023-05-21T00:23:23.806Z,22.17
2023-05-21T00:24:23.810Z,22.16
2023-05-21T00:25:23.778Z,22.16
2023-05-21T00:26:23.795Z,22.16
2023-05-21T00:27:23.810Z,22.16
2023-05-21T00:28:23.772Z,22.17
2023-05-21T00:29:23.785Z,22.16
2023-05-21T00:30:24.198Z,22.16
2023-05-21T00:31:23.816Z,22.16
2023-05-21T00:32:23.770Z,22.16
2023-05-21T00:33:23.734Z,22.15
2023-05-21T00:34:23.714Z,22.16
2023-05-21T00:35:23.711Z,22.15
2023-05-21T00:36:23.747Z,22.16
2023-05-21T00:37:23.716Z,22.16
2023-05-21T00:38:23.701Z,22.16
2023-05-21T00:39:23.681Z,22.16
2023-05-21T00:40:23.711Z,22.16
2023-05-21T00:41:23.685Z,22.16
2023-05-21T00:42:23.670Z,22.16
2023-05-21T00:43:23.773Z,22.16
2023-05-21T00:44:23.816Z,22.15
2023-05-21T00:45:23.964Z,22.16
2023-05-21T00:46:24.089Z,22.14
2023-05-21T00:47:23.964Z,22.16
2023-05-21T00:48:23.966Z,22.16
2023-05-21T00:49:24.059Z,22.16
2023-05-21T00:50:24.171Z,22.16
2023-05-21T00:51:24.241Z,22.16
2023-05-21T00:52:24.354Z,22.15
2023-05-21T00:53:24.405Z,22.15
2023-05-21T00:54:24.403Z,22.15
2023-05-21T00:55:24.410Z,22.16
2023-05-21T00:56:24.420Z,22.16
2023-05-21T00:57:24.401Z,22.15
2023-05-21T00:58:24.440Z,22.16
2023-05-21T00:59:24.484Z,22.15
2023-05-21T01:00:24.462Z,22.15
2023-05-21T01:01:24.483Z,22.15
2023-05-21T01:02:24.744Z,22.14
2023-05-21T01:03:24.598Z,22.14
2023-05-21T01:04:24.479Z,22.15
2023-05-21T01:05:24.446Z,22.14
2023-05-21T01:06:24.458Z,22.14
2023-05-21T01:07:24.503Z,22.14
2023-05-21T01:08:24.476Z,22.14
2023-05-21T01:09:24.513Z,22.14
2023-05-21T01:10:24.776Z,22.14
2023-05-21T01:11:24.550Z,22.14
2023-05-21T01:12:24.596Z,22.14
2023-05-21T01:13:24.713Z,22.13
2023-05-21T01:14:24.793Z,22.13
2023-05-21T01:15:24.777Z,22.14
2023-05-21T01:16:24.798Z,22.14
2023-05-21T01:17:24.784Z,22.13
2023-05-21T01:18:24.774Z,22.13
2023-05-21T01:19:24.834Z,22.14
2023-05-21T01:20:25.196Z,22.14
2023-05-21T01:21:24.917Z,22.14
2023-05-21T01:22:25.071Z,22.14
2023-05-21T01:23:24.908Z,22.14
2023-05-21T01:24:24.927Z,22.14
2023-05-21T01:25:25.029Z,22.15
2023-05-21T01:26:25.100Z,22.15
2023-05-21T01:27:25.173Z,22.15
2023-05-21T01:28:25.246Z,22.15
2023-05-21T01:29:25.369Z,22.16
2023-05-21T01:30:25.469Z,22.15
2023-05-21T01:31:25.550Z,22.15
2023-05-21T01:32:25.677Z,22.15
2023-05-21T01:33:25.680Z,22.14
2023-05-21T01:34:25.618Z,22.14
2023-05-21T01:35:25.640Z,22.14
2023-05-21T01:36:25.629Z,22.14
2023-05-21T01:37:25.734Z,22.14
2023-05-21T01:38:25.803Z,22.14
2023-05-21T01:39:25.828Z,22.13
2023-05-21T01:40:25.835Z,22.15
2023-05-21T01:41:25.827Z,22.14
2023-05-21T01:42:25.830Z,22.14
2023-05-21T01:43:25.818Z,22.14
2023-05-21T01:44:25.903Z,22.13
2023-05-21T01:45:25.945Z,22.14
2023-05-21T01:46:25.950Z,22.13
2023-05-21T01:47:25.964Z,22.13
2023-05-21T01:48:25.892Z,22.12
2023-05-21T01:49:25.937Z,22.12
2023-05-21T01:50:26.023Z,22.12
2023-05-21T01:51:25.993Z,22.12
2023-05-21T01:52:26.040Z,22.12
2023-05-21T01:53:26.049Z,22.12
2023-05-21T01:54:26.032Z,22.12
2023-05-21T01:55:26.030Z,22.12
2023-05-21T01:56:26.107Z,22.12
2023-05-21T01:57:26.196Z,22.12
2023-05-21T01:58:26.256Z,22.11
2023-05-21T01:59:26.384Z,22.12
2023-05-21T02:00:26.370Z,22.11
2023-05-21T02:01:26.375Z,22.11
2023-05-21T02:02:26.452Z,22.11
2023-05-21T02:03:26.460Z,22.11
2023-05-21T02:04:26.382Z,22.11
2023-05-21T02:05:26.464Z,22.11
2023-05-21T02:06:26.472Z,22.12
2023-05-21T02:07:26.445Z,22.11
2023-05-21T02:08:26.469Z,22.11
2023-05-21T02:09:26.425Z,22.11
2023-05-21T02:10:26.711Z,22.11
2023-05-21T02:11:26.514Z,22.10
2023-05-21T02:12:26.589Z,22.11
2023-05-21T02:13:27.033Z,22.11
2023-05-21T02:14:26.630Z,22.11
2023-05-21T02:15:26.615Z,22.11
2023-05-21T02:16:26.650Z,22.11
2023-05-21T02:17:26.606Z,22.11
2023-05-21T02:18:26.612Z,22.11
2023-05-21T02:19:26.777Z,22.11
2023-05-21T02:20:26.732Z,22.11
2023-05-21T02:21:26.706Z,22.11
2023-05-21T02:22:26.688Z,22.11
2023-05-21T02:23:26.706Z,22.12
2023-05-21T02:24:26.704Z,22.11
2023-05-21T02:25:26.806Z,22.11
2023-05-21T02:26:26.818Z,22.11
2023-05-21T02:27:26.815Z,22.11
2023-05-21T02:28:26.822Z,22.11
2023-05-21T02:29:26.781Z,22.11
2023-05-21T02:30:26.900Z,22.11
2023-05-21T02:31:26.973Z,22.11
2023-05-21T02:32:26.984Z,22.10
2023-05-21T02:33:26.955Z,22.11
2023-05-21T02:34:27.065Z,22.11
2023-05-21T02:35:27.243Z,22.10
2023-05-21T02:36:26.969Z,22.10
2023-05-21T02:37:26.995Z,22.10
2023-05-21T02:38:27.008Z,22.10
2023-05-21T02:39:27.012Z,22.10
2023-05-21T02:40:27.262Z,22.10
2023-05-21T02:41:27.043Z,22.10
2023-05-21T02:42:27.082Z,22.10
2023-05-21T02:43:27.082Z,22.09
2023-05-21T02:44:28.804Z,22.09
2023-05-21T02:45:27.224Z,22.09
2023-05-21T02:46:27.168Z,22.09
2023-05-21T02:47:27.123Z,22.09
2023-05-21T02:48:27.134Z,22.09
2023-05-21T02:49:27.189Z,22.08
2023-05-21T02:50:27.164Z,22.09
2023-05-21T02:51:27.182Z,22.08
2023-05-21T02:52:27.176Z,22.09
2023-05-21T02:53:27.270Z,22.08
2023-05-21T02:54:27.253Z,22.08
2023-05-21T02:55:27.742Z,22.07
2023-05-21T02:56:27.485Z,22.07
2023-05-21T02:57:27.593Z,22.07
2023-05-21T02:58:27.594Z,22.07
2023-05-21T02:59:27.531Z,22.07
2023-05-21T03:00:27.737Z,22.08
2023-05-21T03:01:27.629Z,22.07
2023-05-21T03:02:27.621Z,22.08
2023-05-21T03:03:27.782Z,22.07
2023-05-21T03:04:27.556Z,22.07
2023-05-21T03:05:27.738Z,22.07
2023-05-21T03:06:27.670Z,22.07
2023-05-21T03:07:27.685Z,22.07
2023-05-21T03:08:27.648Z,22.07
2023-05-21T03:09:27.650Z,22.07
2023-05-21T03:10:27.747Z,22.07
2023-05-21T03:11:27.769Z,22.07
2023-05-21T03:12:27.748Z,22.07
2023-05-21T03:13:27.810Z,22.07
2023-05-21T03:14:27.738Z,22.08
2023-05-21T03:15:28.259Z,22.08
2023-05-21T03:16:27.830Z,22.08
2023-05-21T03:17:27.765Z,22.08
2023-05-21T03:18:27.772Z,22.07
2023-05-21T03:19:27.844Z,22.07
2023-05-21T03:20:27.857Z,22.08
2023-05-21T03:21:27.915Z,22.07
2023-05-21T03:22:28.029Z,22.07
2023-05-21T03:23:28.034Z,22.07
2023-05-21T03:24:28.044Z,22.07
2023-05-21T03:25:28.097Z,22.07
2023-05-21T03:26:28.061Z,22.07
2023-05-21T03:27:28.086Z,22.07
2023-05-21T03:28:28.238Z,22.06
2023-05-21T03:29:28.161Z,22.06
2023-05-21T03:30:28.290Z,22.06
2023-05-21T03:31:28.197Z,22.06
2023-05-21T03:32:28.194Z,22.07
2023-05-21T03:33:28.177Z,22.06
2023-05-21T03:34:28.289Z,22.06
2023-05-21T03:35:28.408Z,22.06
2023-05-21T03:36:28.437Z,22.05
2023-05-21T03:37:28.438Z,22.05
2023-05-21T03:38:28.440Z,22.06
2023-05-21T03:39:28.469Z,22.05
2023-05-21T03:40:28.428Z,22.05
2023-05-21T03:41:28.565Z,22.06
2023-05-21T03:42:28.583Z,22.06
2023-05-21T03:43:28.557Z,22.05
2023-05-21T03:44:28.630Z,22.05
2023-05-21T03:45:28.759Z,22.05
2023-05-21T03:46:28.640Z,22.06
2023-05-21T03:47:28.646Z,22.05
2023-05-21T03:48:28.593Z,22.06
2023-05-21T03:49:28.670Z,22.06
2023-05-21T03:50:28.753Z,22.06
2023-05-21T03:51:28.638Z,22.06
2023-05-21T03:52:28.671Z,22.06
2023-05-21T03:53:28.684Z,22.06
2023-05-21T03:54:28.682Z,22.05
2023-05-21T03:55:28.768Z,22.05
2023-05-21T03:56:28.679Z,22.05
2023-05-21T03:57:28.795Z,22.05
2023-05-21T03:58:28.781Z,22.05
2023-05-21T03:59:28.785Z,22.06
2023-05-21T04:00:29.272Z,22.05
2023-05-21T04:01:28.820Z,22.05
2023-05-21T04:02:28.899Z,22.04
2023-05-21T04:03:28.914Z,22.05
2023-05-21T04:04:28.879Z,22.05
2023-05-21T04:05:29.286Z,22.05
2023-05-21T04:06:28.944Z,22.05
2023-05-21T04:07:29.055Z,22.05
2023-05-21T04:08:29.057Z,22.05
2023-05-21T04:09:29.129Z,22.05
2023-05-21T04:10:29.256Z,22.05
2023-05-21T04:11:29.052Z,22.05
2023-05-21T04:12:29.144Z,22.05
2023-05-21T04:13:29.138Z,22.05
2023-05-21T04:14:29.149Z,22.06
2023-05-21T04:15:29.262Z,22.05
2023-05-21T04:16:29.225Z,22.05
2023-05-21T04:17:29.219Z,22.05
2023-05-21T04:18:29.253Z,22.06
2023-05-21T04:19:29.274Z,22.05
2023-05-21T04:20:29.812Z,22.05
2023-05-21T04:21:29.306Z,22.05
2023-05-21T04:22:29.267Z,22.05
2023-05-21T04:23:29.284Z,22.06
2023-05-21T04:24:29.330Z,22.06
2023-05-21T04:25:29.785Z,22.06
2023-05-21T04:26:29.340Z,22.05
2023-05-21T04:27:29.348Z,22.05
2023-05-21T04:28:29.382Z,22.06
2023-05-21T04:29:29.380Z,22.06
2023-05-21T04:30:29.777Z,22.05
2023-05-21T04:31:29.417Z,22.06
2023-05-21T04:32:29.408Z,22.06
2023-05-21T04:33:29.404Z,22.06
2023-05-21T04:34:29.396Z,22.06
2023-05-21T04:35:29.821Z,22.07
2023-05-21T04:36:29.409Z,22.06
2023-05-21T04:37:29.433Z,22.06
2023-05-21T04:38:29.422Z,22.07
2023-05-21T04:39:29.495Z,22.06
2023-05-21T04:40:29.796Z,22.06
2023-05-21T04:41:29.494Z,22.06
2023-05-21T04:42:29.489Z,22.06
2023-05-21T04:43:29.559Z,22.07
2023-05-21T04:44:29.549Z,22.07
2023-05-21T04:45:29.558Z,22.07
2023-05-21T04:46:29.629Z,22.06
2023-05-21T04:47:29.658Z,22.07
2023-05-21T04:48:29.648Z,22.07
2023-05-21T04:49:29.693Z,22.07
2023-05-21T04:50:29.773Z,22.07
2023-05-21T04:51:29.668Z,22.08
2023-05-21T04:52:29.741Z,22.08
2023-05-21T04:53:29.866Z,22.07
2023-05-21T04:54:29.922Z,22.08
2023-05-21T04:55:30.384Z,22.08
2023-05-21T04:56:29.981Z,22.08
2023-05-21T04:57:29.971Z,22.08
2023-05-21T04:58:29.988Z,22.09
2023-05-21T04:59:30.016Z,22.08
2023-05-21T05:00:30.445Z,22.09
2023-05-21T05:01:30.065Z,22.09
2023-05-21T05:02:30.093Z,22.09
2023-05-21T05:03:30.065Z,22.09
2023-05-21T05:04:30.028Z,22.09
2023-05-21T05:05:30.355Z,22.08
2023-05-21T05:06:30.148Z,22.09
2023-05-21T05:07:30.172Z,22.09
2023-05-21T05:08:30.184Z,22.09
2023-05-21T05:09:30.203Z,22.09
2023-05-21T05:10:30.373Z,22.10
2023-05-21T05:11:30.194Z,22.09
2023-05-21T05:12:30.249Z,22.10
2023-05-21T05:13:30.241Z,22.09
2023-05-21T05:14:30.245Z,22.10
2023-05-21T05:15:30.332Z,22.10
2023-05-21T05:16:30.384Z,22.09
2023-05-21T05:17:30.437Z,22.10
2023-05-21T05:18:30.493Z,22.10
2023-05-21T05:19:30.607Z,22.10
2023-05-21T05:20:30.811Z,22.10
2023-05-21T05:21:30.505Z,22.10
2023-05-21T05:22:30.618Z,22.10
2023-05-21T05:23:30.692Z,22.11
2023-05-21T05:24:30.739Z,22.11
2023-05-21T05:25:30.697Z,22.10
2023-05-21T05:26:30.720Z,22.11
2023-05-21T05:27:30.776Z,22.12
2023-05-21T05:28:30.753Z,22.12
2023-05-21T05:29:30.809Z,22.11
2023-05-21T05:30:31.317Z,22.12
2023-05-21T05:31:30.879Z,22.12
2023-05-21T05:32:30.850Z,22.12
2023-05-21T05:33:30.888Z,22.12
2023-05-21T05:34:30.867Z,22.13
2023-05-21T05:35:31.309Z,22.13
2023-05-21T05:36:31.006Z,22.13
2023-05-21T05:37:31.118Z,22.13
2023-05-21T05:38:31.114Z,22.13
2023-05-21T05:39:31.139Z,22.13
2023-05-21T05:40:31.117Z,22.13
2023-05-21T05:41:31.134Z,22.13
2023-05-21T05:42:31.144Z,22.13
2023-05-21T05:43:31.216Z,22.13
2023-05-21T05:44:31.275Z,22.13
2023-05-21T05:45:31.255Z,22.13
2023-05-21T05:46:31.321Z,22.13
2023-05-21T05:47:31.315Z,22.13
2023-05-21T05:48:31.292Z,22.13
2023-05-21T05:49:31.277Z,22.13
2023-05-21T05:50:31.294Z,22.13
2023-05-21T05:51:31.297Z,22.13
2023-05-21T05:52:31.314Z,22.13
2023-05-21T05:53:31.389Z,22.13
2023-05-21T05:54:31.504Z,22.13
2023-05-21T05:55:31.480Z,22.14
2023-05-21T05:56:31.477Z,22.14
2023-05-21T05:57:32.335Z,22.14
2023-05-21T05:58:31.538Z,22.15
2023-05-21T05:59:31.506Z,22.15
2023-05-21T06:00:31.817Z,22.15
2023-05-21T06:01:31.549Z,22.15
2023-05-21T06:02:31.662Z,22.16
2023-05-21T06:03:31.826Z,22.16
2023-05-21T06:04:31.626Z,22.16
2023-05-21T06:05:31.804Z,22.17
2023-05-21T06:06:31.708Z,22.17
2023-05-21T06:07:31.761Z,22.18
2023-05-21T06:08:31.736Z,22.19
2023-05-21T06:09:31.751Z,22.20
2023-05-21T06:10:31.812Z,22.20
2023-05-21T06:11:31.752Z,22.21
2023-05-21T06:12:31.821Z,22.21
2023-05-21T06:13:31.955Z,22.21
2023-05-21T06:14:31.904Z,22.22
2023-05-21T06:15:32.324Z,22.22
2023-05-21T06:16:32.046Z,22.22
2023-05-21T06:17:32.141Z,22.23
2023-05-21T06:18:32.120Z,22.22
2023-05-21T06:19:32.216Z,22.22
2023-05-21T06:20:32.360Z,22.23
2023-05-21T06:21:32.226Z,22.24
2023-05-21T06:22:32.161Z,22.24
2023-05-21T06:23:32.151Z,22.24
2023-05-21T06:24:32.157Z,22.24
2023-05-21T06:25:32.163Z,22.24
2023-05-21T06:26:32.127Z,22.24
2023-05-21T06:27:32.219Z,22.24
2023-05-21T06:28:32.305Z,22.24
2023-05-21T06:29:32.328Z,22.24
2023-05-21T06:30:32.365Z,22.25
2023-05-21T06:31:32.326Z,22.26
2023-05-21T06:32:32.404Z,22.26
2023-05-21T06:33:32.423Z,22.26
2023-05-21T06:34:32.399Z,22.26
2023-05-21T06:35:32.462Z,22.26
2023-05-21T06:36:32.526Z,22.27
2023-05-21T06:37:32.472Z,22.26
2023-05-21T06:38:32.473Z,22.26
2023-05-21T06:39:32.480Z,22.26
2023-05-21T06:40:32.611Z,22.25
2023-05-21T06:41:32.591Z,22.25
2023-05-21T06:42:32.588Z,22.25
2023-05-21T06:43:32.552Z,22.26
2023-05-21T06:44:32.572Z,22.25
2023-05-21T06:45:32.629Z,22.25
2023-05-21T06:46:32.705Z,22.26
2023-05-21T06:47:32.760Z,22.26
2023-05-21T06:48:32.851Z,22.26
2023-05-21T06:49:32.949Z,22.26
2023-05-21T06:50:33.339Z,22.27
2023-05-21T06:51:33.015Z,22.26
2023-05-21T06:52:33.036Z,22.27
2023-05-21T06:53:33.044Z,22.27
2023-05-21T06:54:33.024Z,22.27
2023-05-21T06:55:33.364Z,22.28
2023-05-21T06:56:33.061Z,22.28
2023-05-21T06:57:33.065Z,22.28
2023-05-21T06:58:33.076Z,22.28
2023-05-21T06:59:33.053Z,22.29
2023-05-21T07:00:33.337Z,22.29
2023-05-21T07:01:33.079Z,22.28
2023-05-21T07:02:33.264Z,22.29
2023-05-21T07:03:33.256Z,22.29
2023-05-21T07:04:33.316Z,22.30
2023-05-21T07:05:33.427Z,22.30
2023-05-21T07:06:33.424Z,22.30
2023-05-21T07:07:33.391Z,22.31
2023-05-21T07:08:33.380Z,22.31
2023-05-21T07:09:33.398Z,22.31
2023-05-21T07:10:33.401Z,22.31
2023-05-21T07:11:33.488Z,22.31
2023-05-21T07:12:33.540Z,22.31
2023-05-21T07:13:33.545Z,22.31
2023-05-21T07:14:33.553Z,22.31
2023-05-21T07:15:33.604Z,22.31
2023-05-21T07:16:33.636Z,22.31
2023-05-21T07:17:33.621Z,22.31
2023-05-21T07:18:33.597Z,22.32
2023-05-21T07:19:33.673Z,22.33
2023-05-21T07:20:33.842Z,22.34
2023-05-21T07:21:33.740Z,22.33
2023-05-21T07:22:33.764Z,22.34
2023-05-21T07:23:33.838Z,22.35
2023-05-21T07:24:33.745Z,22.34
2023-05-21T07:25:33.869Z,22.35
2023-05-21T07:26:33.788Z,22.36
2023-05-21T07:27:33.894Z,22.37
2023-05-21T07:28:33.948Z,22.36
2023-05-21T07:29:33.971Z,22.38
2023-05-21T07:30:34.354Z,22.38
2023-05-21T07:31:34.186Z,22.38
2023-05-21T07:32:34.048Z,22.39
2023-05-21T07:33:34.059Z,22.39
2023-05-21T07:34:34.085Z,22.40
2023-05-21T07:35:34.565Z,22.40
2023-05-21T07:36:34.171Z,22.40
2023-05-21T07:37:34.287Z,22.40
2023-05-21T07:38:34.230Z,22.41
2023-05-21T07:39:34.223Z,22.41
2023-05-21T07:40:34.209Z,22.41
2023-05-21T07:41:34.235Z,22.41
2023-05-21T07:42:34.294Z,22.41
2023-05-21T07:43:34.388Z,22.42
2023-05-21T07:44:34.477Z,22.42
2023-05-21T07:45:35.055Z,22.42
2023-05-21T07:46:34.600Z,22.43
2023-05-21T07:47:34.643Z,22.43
2023-05-21T07:48:35.653Z,22.44
2023-05-21T07:49:34.666Z,22.44
2023-05-21T07:50:34.685Z,22.45
2023-05-21T07:51:34.712Z,22.46
2023-05-21T07:52:34.784Z,22.47
2023-05-21T07:53:34.869Z,22.46
2023-05-21T07:54:34.869Z,22.47
2023-05-21T07:55:35.491Z,22.48
2023-05-21T07:56:34.947Z,22.49
2023-05-21T07:57:35.002Z,22.49
2023-05-21T07:58:35.063Z,22.50
2023-05-21T07:59:35.125Z,22.50
2023-05-21T08:00:35.148Z,22.50
2023-05-21T08:01:35.205Z,22.50
2023-05-21T08:02:35.303Z,22.51
2023-05-21T08:03:35.408Z,22.51
2023-05-21T08:04:35.406Z,22.51
2023-05-21T08:05:35.599Z,22.51
2023-05-21T08:06:35.469Z,22.50
2023-05-21T08:07:35.501Z,22.51
2023-05-21T08:08:35.565Z,22.50
2023-05-21T08:09:35.609Z,22.50
2023-05-21T08:10:35.694Z,22.50
2023-05-21T08:11:35.843Z,22.50
2023-05-21T08:12:35.823Z,22.51
2023-05-21T08:13:35.862Z,22.51
2023-05-21T08:14:35.936Z,22.51
2023-05-21T08:15:36.206Z,22.52
2023-05-21T08:16:36.127Z,22.52
2023-05-21T08:17:36.136Z,22.53
2023-05-21T08:18:36.175Z,22.53
2023-05-21T08:19:36.271Z,22.54
2023-05-21T08:20:36.297Z,22.54
2023-05-21T08:21:36.356Z,22.54
2023-05-21T08:22:36.396Z,22.54
2023-05-21T08:23:36.485Z,22.54
2023-05-21T08:24:36.520Z,22.55
2023-05-21T08:25:37.007Z,22.55
2023-05-21T08:26:36.621Z,22.55
2023-05-21T08:27:36.707Z,22.55
2023-05-21T08:28:36.764Z,22.56
2023-05-21T08:29:36.905Z,22.56
2023-05-21T08:30:36.858Z,22.56
2023-05-21T08:31:36.936Z,22.57
2023-05-21T08:32:36.993Z,22.58
2023-05-21T08:33:37.050Z,22.58
2023-05-21T08:34:37.126Z,22.58
2023-05-21T08:35:37.426Z,22.58
2023-05-21T08:36:37.255Z,22.59
2023-05-21T08:37:37.283Z,22.59
2023-05-21T08:38:37.318Z,22.59
2023-05-21T08:39:37.462Z,22.59
2023-05-21T08:40:37.489Z,22.60
2023-05-21T08:41:37.516Z,22.60
2023-05-21T08:42:37.871Z,22.61
2023-05-21T08:43:37.677Z,22.61
2023-05-21T08:44:37.682Z,22.61
2023-05-21T08:45:38.532Z,22.62
2023-05-21T08:46:37.809Z,22.63
2023-05-21T08:47:37.923Z,22.63
2023-05-21T08:48:37.956Z,22.62
2023-05-21T08:49:37.983Z,22.63
2023-05-21T08:50:38.021Z,22.63
2023-05-21T08:51:38.064Z,22.63
2023-05-21T08:52:38.206Z,22.63
2023-05-21T08:53:38.186Z,22.64
2023-05-21T08:54:38.270Z,22.63
2023-05-21T08:55:38.539Z,22.65
2023-05-21T08:56:38.366Z,22.64
2023-05-21T08:57:38.423Z,22.64
2023-05-21T08:58:38.488Z,22.64
2023-05-21T08:59:38.532Z,22.64
2023-05-21T09:00:38.618Z,22.64
2023-05-21T09:01:38.710Z,22.65
2023-05-21T09:02:38.753Z,22.64
2023-05-21T09:03:38.787Z,22.64
2023-05-21T09:04:39.013Z,22.64
2023-05-21T09:05:39.389Z,22.65
2023-05-21T09:06:38.957Z,22.65
2023-05-21T09:07:38.996Z,22.65
2023-05-21T09:08:39.046Z,22.65
2023-05-21T09:09:39.116Z,22.66
2023-05-21T09:10:39.174Z,22.66
2023-05-21T09:11:39.226Z,22.66
2023-05-21T09:12:39.269Z,22.66
2023-05-21T09:13:39.344Z,22.65
2023-05-21T09:14:39.421Z,22.66
2023-05-21T09:15:39.518Z,22.66
2023-05-21T09:16:39.526Z,22.67
2023-05-21T09:17:39.631Z,22.67
2023-05-21T09:18:39.630Z,22.67
2023-05-21T09:19:39.772Z,22.67
2023-05-21T09:20:39.743Z,22.67
2023-05-21T09:21:39.808Z,22.68
2023-05-21T09:22:39.817Z,22.68
2023-05-21T09:23:39.873Z,22.68
2023-05-21T09:24:39.971Z,22.67
2023-05-21T09:25:40.493Z,22.67
2023-05-21T09:26:40.095Z,22.68
2023-05-21T09:27:40.131Z,22.68
2023-05-21T09:28:40.207Z,22.68
2023-05-21T09:29:40.243Z,22.68
2023-05-21T09:30:40.605Z,22.69
2023-05-21T09:31:40.413Z,22.69
2023-05-21T09:32:40.444Z,22.68
2023-05-21T09:33:40.487Z,22.69
2023-05-21T09:34:40.565Z,22.69
2023-05-21T09:35:40.613Z,22.69
2023-05-21T09:36:40.691Z,22.70
2023-05-21T09:37:40.714Z,22.69
2023-05-21T09:38:40.794Z,22.70
2023-05-21T09:39:40.838Z,22.70
2023-05-21T09:40:40.929Z,22.71
2023-05-21T09:41:40.977Z,22.69
2023-05-21T09:42:41.034Z,22.70
2023-05-21T09:43:41.879Z,22.70
2023-05-21T09:44:41.120Z,22.70
2023-05-21T09:45:41.421Z,22.70
2023-05-21T09:46:41.590Z,22.70
2023-05-21T09:47:41.393Z,22.71
2023-05-21T09:48:41.376Z,22.70
2023-05-21T09:49:41.424Z,22.71
2023-05-21T09:50:41.485Z,22.71
2023-05-21T09:51:41.536Z,22.72
2023-05-21T09:52:42.299Z,22.72
2023-05-21T09:53:41.684Z,22.73
2023-05-21T09:54:41.721Z,22.72
2023-05-21T09:55:41.772Z,22.72
2023-05-21T09:56:41.869Z,22.73
2023-05-21T09:57:41.862Z,22.73
2023-05-21T09:58:41.927Z,22.72
2023-05-21T09:59:41.985Z,22.72
2023-05-21T10:00:42.456Z,22.73
2023-05-21T10:01:42.166Z,22.73
2023-05-21T10:02:42.223Z,22.74
2023-05-21T10:03:42.218Z,22.73
2023-05-21T10:04:42.345Z,22.73
2023-05-21T10:05:42.349Z,22.74
2023-05-21T10:06:42.395Z,22.73
2023-05-21T10:07:42.432Z,22.74
2023-05-21T10:08:42.474Z,22.74
2023-05-21T10:09:42.529Z,22.74
2023-05-21T10:10:42.617Z,22.74
2023-05-21T10:11:42.681Z,22.73
2023-05-21T10:12:42.707Z,22.73
2023-05-21T10:13:42.754Z,22.73
2023-05-21T10:14:42.818Z,22.73
2023-05-21T10:15:42.858Z,22.73
2023-05-21T10:16:43.029Z,22.73
2023-05-21T10:17:43.052Z,22.73
2023-05-21T10:18:43.070Z,22.73
2023-05-21T10:19:43.148Z,22.73
2023-05-21T10:20:43.172Z,22.73
2023-05-21T10:21:43.168Z,22.73
2023-05-21T10:22:43.225Z,22.74
2023-05-21T10:23:43.265Z,22.73
2023-05-21T10:24:43.335Z,22.73
2023-05-21T10:25:43.389Z,22.73
2023-05-21T10:26:43.468Z,22.74
2023-05-21T10:27:43.515Z,22.74
2023-05-21T10:28:43.535Z,22.74
2023-05-21T10:29:43.595Z,22.74
2023-05-21T10:30:43.933Z,22.74
2023-05-21T10:31:43.749Z,22.74
2023-05-21T10:32:43.919Z,22.75
2023-05-21T10:33:43.844Z,22.75
2023-05-21T10:34:43.876Z,22.76
2023-05-21T10:35:43.929Z,22.76
2023-05-21T10:36:43.981Z,22.76
2023-05-21T10:37:43.995Z,22.76
2023-05-21T10:38:44.034Z,22.77
2023-05-21T10:39:44.129Z,22.77
2023-05-21T10:40:44.128Z,22.78
2023-05-21T10:41:44.206Z,22.77
2023-05-21T10:42:44.231Z,22.78
2023-05-21T10:43:44.342Z,22.78
2023-05-21T10:44:44.375Z,22.78
2023-05-21T10:45:44.424Z,22.79
2023-05-21T10:46:44.455Z,22.79
2023-05-21T10:47:44.535Z,22.79
2023-05-21T10:48:44.577Z,22.79
2023-05-21T10:49:44.604Z,22.80
2023-05-21T10:50:44.655Z,22.80
2023-05-21T10:51:44.704Z,22.79
2023-05-21T10:52:44.757Z,22.80
2023-05-21T10:53:44.806Z,22.79
2023-05-21T10:54:44.823Z,22.80
2023-05-21T10:55:44.876Z,22.80
2023-05-21T10:56:44.985Z,22.79
2023-05-21T10:57:44.959Z,22.80
2023-05-21T10:58:44.999Z,22.79
2023-05-21T10:59:45.050Z,22.79
2023-05-21T11:00:45.434Z,22.80
2023-05-21T11:01:45.184Z,22.79
2023-05-21T11:02:45.215Z,22.80
2023-05-21T11:03:45.259Z,22.80
2023-05-21T11:04:45.319Z,22.81
2023-05-21T11:05:45.311Z,22.80
2023-05-21T11:06:45.333Z,22.81
2023-05-21T11:07:45.417Z,22.81
2023-05-21T11:08:45.482Z,22.82
2023-05-21T11:09:45.484Z,22.82
2023-05-21T11:10:45.545Z,22.83
2023-05-21T11:11:45.614Z,22.83
2023-05-21T11:12:45.620Z,22.83
2023-05-21T11:13:45.649Z,22.82
2023-05-21T11:14:45.735Z,22.84
2023-05-21T11:15:45.781Z,22.84
2023-05-21T11:16:45.874Z,22.83
2023-05-21T11:17:45.880Z,22.84
2023-05-21T11:18:45.957Z,22.84
2023-05-21T11:19:45.926Z,22.85
2023-05-21T11:20:45.978Z,22.85
2023-05-21T11:21:46.036Z,22.85
2023-05-21T11:22:46.052Z,22.85
2023-05-21T11:23:46.129Z,22.85
2023-05-21T11:24:46.162Z,22.86
2023-05-21T11:25:46.168Z,22.86
2023-05-21T11:26:46.223Z,22.87
2023-05-21T11:27:46.251Z,22.87
2023-05-21T11:28:46.304Z,22.87
2023-05-21T11:29:46.316Z,22.87
2023-05-21T11:30:46.358Z,22.87
2023-05-21T11:31:46.552Z,22.88
2023-05-21T11:32:46.561Z,22.88
2023-05-21T11:33:46.480Z,22.88
2023-05-21T11:34:46.569Z,22.87
2023-05-21T11:35:46.938Z,22.88
2023-05-21T11:36:46.612Z,22.88
2023-05-21T11:37:46.669Z,22.88
2023-05-21T11:38:46.692Z,22.89
2023-05-21T11:39:46.753Z,22.88
2023-05-21T11:40:46.935Z,22.89
2023-05-21T11:41:46.818Z,22.89
2023-05-21T11:42:46.868Z,22.89
2023-05-21T11:43:46.911Z,22.90
2023-05-21T11:44:46.933Z,22.90
2023-05-21T11:45:47.511Z,22.90
2023-05-21T11:46:47.059Z,22.91
2023-05-21T11:47:47.142Z,22.90
2023-05-21T11:48:47.119Z,22.91
2023-05-21T11:49:47.175Z,22.91
2023-05-21T11:50:47.454Z,22.91
2023-05-21T11:51:47.251Z,22.90
2023-05-21T11:52:47.303Z,22.91
2023-05-21T11:53:47.388Z,22.91
2023-05-21T11:54:47.416Z,22.91
2023-05-21T11:55:47.529Z,22.92
2023-05-21T11:56:47.513Z,22.93
2023-05-21T11:57:47.552Z,22.93
2023-05-21T11:58:47.579Z,22.93
2023-05-21T11:59:47.632Z,22.94
2023-05-21T12:00:47.972Z,22.94
2023-05-21T12:01:47.659Z,22.93
2023-05-21T12:02:47.844Z,22.93
2023-05-21T12:03:47.863Z,22.95
2023-05-21T12:04:47.805Z,22.94
2023-05-21T12:05:48.103Z,22.94
2023-05-21T12:06:47.919Z,22.95
2023-05-21T12:07:47.914Z,22.95
2023-05-21T12:08:47.982Z,22.95
2023-05-21T12:09:48.051Z,22.95
2023-05-21T12:10:48.489Z,22.95
2023-05-21T12:11:48.239Z,22.96
2023-05-21T12:12:55.674Z,22.96
2023-05-21T12:13:49.151Z,22.95
2023-05-21T12:14:48.125Z,22.97
2023-05-21T12:15:48.440Z,22.97
2023-05-21T12:16:48.204Z,22.97
2023-05-21T12:17:48.100Z,22.98
2023-05-21T12:18:48.163Z,22.98
2023-05-21T12:19:48.110Z,22.99
2023-05-21T12:20:48.470Z,22.99
2023-05-21T12:21:48.111Z,23.00
2023-05-21T12:22:48.102Z,23.01
2023-05-21T12:23:48.072Z,23.01
2023-05-21T12:24:48.063Z,23.01
2023-05-21T12:25:48.471Z,23.03
2023-05-21T12:26:48.132Z,23.04
2023-05-21T12:27:48.159Z,23.04
2023-05-21T12:28:48.164Z,23.05
2023-05-21T12:29:48.222Z,23.06
2023-05-21T12:30:48.478Z,23.07
2023-05-21T12:31:48.303Z,23.07
2023-05-21T12:32:48.305Z,23.09
2023-05-21T12:33:48.353Z,23.09
2023-05-21T12:34:48.344Z,23.09
2023-05-21T12:35:48.416Z,23.10
2023-05-21T12:36:48.454Z,23.11
2023-05-21T12:37:48.445Z,23.12
2023-05-21T12:38:48.502Z,23.13
2023-05-21T12:39:48.501Z,23.13
2023-05-21T12:40:48.980Z,23.14
2023-05-21T12:41:48.520Z,23.15
2023-05-21T12:42:48.606Z,23.16
2023-05-21T12:43:48.584Z,23.16
2023-05-21T12:44:48.601Z,23.18
2023-05-21T12:45:48.730Z,23.18
2023-05-21T12:46:48.639Z,23.20
2023-05-21T12:47:48.780Z,23.20
2023-05-21T12:48:48.714Z,23.21
2023-05-21T12:49:48.718Z,23.22
2023-05-21T12:50:49.475Z,23.23
2023-05-21T12:51:48.736Z,23.23
2023-05-21T12:52:48.775Z,23.25